Terminal Aerodrome Forecast
Issued by NWS

Home | Current Version | Previous Version | Text Only | Print | Product List | Glossary Off
Versions: 1 2 3 4 5 6 7 8 9 10 11 12 13 14 15 16 17 18

000
FTUS43 KICT 171720
TAFSLN
TAF
KSLN 171720Z 1718/1818 12017KT P6SM BKN250
     FM172000 14017KT P6SM SKC
     FM180200 19013G27KT P6SM SCT250
     FM180500 29017KT P6SM SKC
     FM180900 31022G30KT P6SM SKC=

USA.gov is the U.S. government's official web portal to all federal, state and local government web resources and services.